createdAt,value
2018-05-12T00:01:19.253Z,13.10
2018-05-12T00:03:46.562Z,13.00
2018-05-12T00:06:12.881Z,13.00
2018-05-12T00:08:39.964Z,13.10
2018-05-12T00:11:07.009Z,13.10
2018-05-12T00:13:34.044Z,13.10
2018-05-12T00:16:00.337Z,13.00
2018-05-12T00:18:26.648Z,13.20
2018-05-12T00:20:52.957Z,13.30
2018-05-12T00:23:19.997Z,13.40
2018-05-12T00:25:47.045Z,13.40
2018-05-12T00:28:14.106Z,13.50
2018-05-12T00:30:41.152Z,13.50
2018-05-12T00:33:08.194Z,13.30
2018-05-12T00:35:36.357Z,13.40
2018-05-12T00:38:03.410Z,13.30
2018-05-12T00:40:30.480Z,13.20
2018-05-12T00:42:56.836Z,13.20
2018-05-12T00:45:24.121Z,13.20
2018-05-12T00:47:50.446Z,13.20
2018-05-12T00:50:20.669Z,13.30
2018-05-12T00:52:47.184Z,13.30
2018-05-12T00:55:13.522Z,13.20
2018-05-12T00:57:39.842Z,13.20
2018-05-12T01:00:07.210Z,13.20
2018-05-12T01:02:33.553Z,13.20
2018-05-12T01:05:01.390Z,13.00
2018-05-12T01:07:27.721Z,13.00
2018-05-12T01:09:54.053Z,13.00
2018-05-12T01:12:20.389Z,12.90
2018-05-12T01:14:46.751Z,12.80
2018-05-12T01:17:13.110Z,12.80
2018-05-12T01:19:41.193Z,12.80
2018-05-12T01:22:07.518Z,12.80
2018-05-12T01:24:33.837Z,12.70
2018-05-12T01:27:00.905Z,12.70
2018-05-12T01:29:27.246Z,12.60
2018-05-12T01:31:53.573Z,12.70
2018-05-12T01:34:19.906Z,12.70
2018-05-12T01:36:46.220Z,12.70
2018-05-12T01:39:12.545Z,12.70
2018-05-12T01:41:39.626Z,12.70
2018-05-12T01:44:06.830Z,12.60
2018-05-12T01:46:33.896Z,12.60
2018-05-12T01:49:00.224Z,12.60
2018-05-12T01:51:26.548Z,12.60
2018-05-12T01:53:53.604Z,12.70
2018-05-12T01:56:19.945Z,12.60
2018-05-12T01:58:46.268Z,12.60
2018-05-12T02:01:12.631Z,12.70
2018-05-12T02:03:39.050Z,12.70
2018-05-12T02:06:05.343Z,12.70
2018-05-12T02:08:31.660Z,12.70
2018-05-12T02:10:58.741Z,12.70
2018-05-12T02:13:25.065Z,12.70
2018-05-12T02:15:51.469Z,12.60
2018-05-12T02:18:17.792Z,12.60
2018-05-12T02:20:44.134Z,12.60
2018-05-12T02:23:10.526Z,12.50
2018-05-12T02:25:36.866Z,12.60
2018-05-12T02:28:03.229Z,12.50
2018-05-12T02:30:29.591Z,12.50
2018-05-12T02:32:56.646Z,12.40
2018-05-12T02:35:22.969Z,12.50
2018-05-12T02:37:49.321Z,12.50
2018-05-12T02:40:15.689Z,12.50
2018-05-12T02:42:42.027Z,12.60
2018-05-12T02:45:08.358Z,12.60
2018-05-12T02:47:34.689Z,12.50
2018-05-12T02:50:02.041Z,12.60
2018-05-12T02:52:28.369Z,12.60
2018-05-12T02:54:54.702Z,12.60
2018-05-12T02:57:21.033Z,12.70
2018-05-12T02:59:47.365Z,12.80
2018-05-12T03:02:13.701Z,12.80
2018-05-12T03:04:40.016Z,12.80
2018-05-12T03:07:06.349Z,12.90
2018-05-12T03:09:32.670Z,12.90
2018-05-12T03:11:58.997Z,13.00
2018-05-12T03:14:25.332Z,12.90
2018-05-12T03:16:51.649Z,13.10
2018-05-12T03:19:18.087Z,13.10
2018-05-12T03:21:44.416Z,13.00
2018-05-12T03:24:11.496Z,13.00
2018-05-12T03:26:37.852Z,13.00
2018-05-12T03:29:04.905Z,13.10
2018-05-12T03:31:31.233Z,13.10
2018-05-12T03:33:57.556Z,13.30
2018-05-12T03:36:24.626Z,13.10
2018-05-12T03:38:50.940Z,13.10
2018-05-12T03:41:18.017Z,13.10
2018-05-12T03:43:44.394Z,13.10
2018-05-12T03:46:11.532Z,13.20
2018-05-12T03:48:37.857Z,13.20
2018-05-12T03:51:04.190Z,13.20
2018-05-12T03:53:30.508Z,13.20
2018-05-12T03:55:56.844Z,13.30
2018-05-12T03:58:23.181Z,13.40
2018-05-12T04:00:49.518Z,13.50
2018-05-12T04:03:15.844Z,13.60
2018-05-12T04:05:54.349Z,13.70
2018-05-12T04:08:32.988Z,13.70
2018-05-12T04:11:12.466Z,13.80
2018-05-12T04:13:38.802Z,13.80
2018-05-12T04:16:05.149Z,13.80
2018-05-12T04:18:31.473Z,13.80
2018-05-12T04:20:57.824Z,13.90
2018-05-12T04:23:25.177Z,13.80
2018-05-12T04:25:51.518Z,13.80
2018-05-12T04:28:17.844Z,14.00
2018-05-12T04:30:44.176Z,13.90
2018-05-12T04:33:10.500Z,14.00
2018-05-12T04:35:36.829Z,14.00
2018-05-12T04:38:03.162Z,14.10
2018-05-12T04:40:29.481Z,14.20
2018-05-12T04:42:55.856Z,14.30
2018-05-12T04:45:22.256Z,14.30
2018-05-12T04:47:48.584Z,14.30
2018-05-12T04:50:14.913Z,14.40
2018-05-12T04:52:41.232Z,14.40
2018-05-12T04:55:07.563Z,14.50
2018-05-12T04:57:33.886Z,14.50
2018-05-12T05:00:00.210Z,14.40
2018-05-12T05:02:27.521Z,14.40
2018-05-12T05:04:53.857Z,14.40
2018-05-12T05:07:20.176Z,14.50
2018-05-12T05:09:46.508Z,14.70
2018-05-12T05:12:12.837Z,14.80
2018-05-12T05:14:39.158Z,15.00
2018-05-12T05:17:05.487Z,15.10
2018-05-12T05:19:31.833Z,15.20
2018-05-12T05:21:58.164Z,15.40
2018-05-12T05:24:24.501Z,15.20
2018-05-12T05:26:50.842Z,15.20
2018-05-12T05:29:17.977Z,15.20
2018-05-12T05:31:44.316Z,15.20
2018-05-12T05:34:10.670Z,15.10
2018-05-12T05:36:37.009Z,15.20
2018-05-12T05:39:03.388Z,15.30
2018-05-12T05:41:29.735Z,15.20
2018-05-12T05:43:57.058Z,15.10
2018-05-12T05:46:23.393Z,14.90
2018-05-12T05:48:49.744Z,15.00
2018-05-12T05:51:17.061Z,15.10
2018-05-12T05:53:43.393Z,15.20
2018-05-12T05:56:09.743Z,15.30
2018-05-12T05:58:36.091Z,15.40
2018-05-12T06:01:02.462Z,15.40
2018-05-12T06:03:28.796Z,15.40
2018-05-12T06:05:55.118Z,15.40
2018-05-12T06:08:21.445Z,15.60
2018-05-12T06:10:48.532Z,15.80
2018-05-12T06:13:15.897Z,15.80
2018-05-12T06:15:43.241Z,16.10
2018-05-12T06:18:10.659Z,16.40
2018-05-12T06:20:36.973Z,16.60
2018-05-12T06:23:03.300Z,16.90
2018-05-12T06:25:29.621Z,17.30
2018-05-12T06:27:55.986Z,17.70
2018-05-12T06:30:22.402Z,18.00
2018-05-12T06:32:49.477Z,18.70
2018-05-12T06:35:15.796Z,18.70
2018-05-12T06:37:42.865Z,19.10
2018-05-12T06:40:09.184Z,19.10
2018-05-12T06:42:35.501Z,19.10
2018-05-12T06:45:02.589Z,19.40
2018-05-12T06:47:28.953Z,19.40
2018-05-12T06:49:55.269Z,19.60
2018-05-12T06:52:21.606Z,19.70
2018-05-12T06:54:47.933Z,19.70
2018-05-12T06:57:14.260Z,19.90
2018-05-12T06:59:40.600Z,20.00
2018-05-12T07:02:06.913Z,20.00
2018-05-12T07:04:33.968Z,20.20
2018-05-12T07:07:00.285Z,20.10
2018-05-12T07:09:26.596Z,20.20
2018-05-12T07:11:53.937Z,20.30
2018-05-12T07:14:20.253Z,20.40
2018-05-12T07:16:47.364Z,20.80
2018-05-12T07:19:13.690Z,20.80
2018-05-12T07:21:40.253Z,21.00
2018-05-12T07:24:06.572Z,21.30
2018-05-12T07:26:32.925Z,21.40
2018-05-12T07:28:59.996Z,21.60
2018-05-12T07:31:26.381Z,21.50
2018-05-12T07:33:52.713Z,21.60
2018-05-12T07:36:19.031Z,21.90
2018-05-12T07:38:45.366Z,22.00
2018-05-12T07:41:11.685Z,22.20
2018-05-12T07:43:38.018Z,22.30
2018-05-12T07:46:04.345Z,22.50
2018-05-12T07:48:30.670Z,22.60
2018-05-12T07:50:58.788Z,22.60
2018-05-12T07:53:26.753Z,22.60
2018-05-12T07:55:53.081Z,22.50
2018-05-12T07:58:19.388Z,22.50
2018-05-12T08:00:45.717Z,22.70
2018-05-12T08:03:12.064Z,22.70
2018-05-12T08:05:38.368Z,22.50
2018-05-12T08:08:04.700Z,22.40
2018-05-12T08:10:31.133Z,22.70
2018-05-12T08:12:57.464Z,22.90
2018-05-12T08:15:23.794Z,23.00
2018-05-12T08:17:50.919Z,23.30
2018-05-12T08:20:17.265Z,23.40
2018-05-12T08:22:43.601Z,23.50
2018-05-12T08:25:09.938Z,23.50
2018-05-12T08:27:36.277Z,23.50
2018-05-12T08:30:02.634Z,23.90
2018-05-12T08:32:29.972Z,24.10
2018-05-12T08:34:56.293Z,24.20
2018-05-12T08:37:23.601Z,24.50
2018-05-12T08:39:49.937Z,24.50
2018-05-12T08:42:16.264Z,24.50
2018-05-12T08:44:42.589Z,24.70
2018-05-12T08:47:08.933Z,24.70
2018-05-12T08:49:35.244Z,24.80
2018-05-12T08:52:02.321Z,24.80
2018-05-12T08:54:28.684Z,24.80
2018-05-12T08:56:55.024Z,24.90
2018-05-12T08:59:21.393Z,24.70
2018-05-12T09:01:47.716Z,24.70
2018-05-12T09:04:14.772Z,25.00
2018-05-12T09:06:41.093Z,25.00
2018-05-12T09:09:08.177Z,24.80
2018-05-12T09:11:34.512Z,24.80
2018-05-12T09:14:00.829Z,24.90
2018-05-12T09:16:27.148Z,25.00
2018-05-12T09:18:53.488Z,25.20
2018-05-12T09:21:20.850Z,25.30
2018-05-12T09:23:48.217Z,25.50
2018-05-12T09:26:14.550Z,25.40
2018-05-12T09:28:40.903Z,25.60
2018-05-12T09:31:07.232Z,25.50
2018-05-12T09:33:33.546Z,25.40
2018-05-12T09:35:59.905Z,25.60
2018-05-12T09:38:26.222Z,25.70
2018-05-12T09:40:52.554Z,25.60
2018-05-12T09:43:19.878Z,25.50
2018-05-12T09:45:46.221Z,25.40
2018-05-12T09:48:13.533Z,25.50
2018-05-12T09:50:40.593Z,25.60
2018-05-12T09:53:06.909Z,25.50
2018-05-12T09:55:33.963Z,26.20
2018-05-12T09:58:00.306Z,26.10
2018-05-12T10:00:26.669Z,26.50
2018-05-12T10:02:52.993Z,26.10
2018-05-12T10:05:19.321Z,25.80
2018-05-12T10:07:45.644Z,25.50
2018-05-12T10:10:11.984Z,25.60
2018-05-12T10:12:38.310Z,25.30
2018-05-12T10:15:04.659Z,25.20
2018-05-12T10:17:30.977Z,25.40
2018-05-12T10:19:57.293Z,25.70
2018-05-12T10:22:23.636Z,25.80
2018-05-12T10:24:49.982Z,26.00
2018-05-12T10:27:16.304Z,26.30
2018-05-12T10:29:43.613Z,26.20
2018-05-12T10:32:11.675Z,26.50
2018-05-12T10:34:38.753Z,26.20
2018-05-12T10:37:05.101Z,26.20
2018-05-12T10:39:31.420Z,26.30
2018-05-12T10:41:57.762Z,26.50
2018-05-12T10:44:24.080Z,27.00
2018-05-12T10:46:50.388Z,27.20
2018-05-12T10:49:16.701Z,27.10
2018-05-12T10:51:43.753Z,27.00
2018-05-12T10:54:10.816Z,27.10
2018-05-12T10:56:37.931Z,27.10
2018-05-12T10:59:04.276Z,27.10
2018-05-12T11:01:31.337Z,27.80
2018-05-12T11:03:58.432Z,27.80
2018-05-12T11:06:24.779Z,27.70
2018-05-12T11:08:51.102Z,27.50
2018-05-12T11:11:17.456Z,27.00
2018-05-12T11:13:43.820Z,26.70
2018-05-12T11:16:10.246Z,26.70
2018-05-12T11:18:36.509Z,26.80
2018-05-12T11:21:03.866Z,27.00
2018-05-12T11:23:30.205Z,27.40
2018-05-12T11:25:56.529Z,27.40
2018-05-12T11:28:22.836Z,27.60
2018-05-12T11:30:49.157Z,27.40
2018-05-12T11:33:15.480Z,27.60
2018-05-12T11:35:42.535Z,27.00
2018-05-12T11:38:08.862Z,27.00
2018-05-12T11:40:35.931Z,26.90
2018-05-12T11:43:03.285Z,26.90
2018-05-12T11:45:30.632Z,27.40
2018-05-12T11:47:56.956Z,27.90
2018-05-12T11:50:23.281Z,28.00
2018-05-12T11:52:50.331Z,28.30
2018-05-12T11:55:16.661Z,28.30
2018-05-12T11:57:43.744Z,28.50
2018-05-12T12:00:10.080Z,28.50
2018-05-12T12:02:36.448Z,28.40
2018-05-12T12:05:02.839Z,28.50
2018-05-12T12:07:30.165Z,28.80
2018-05-12T12:09:56.493Z,29.10
2018-05-12T12:12:22.813Z,28.90
2018-05-12T12:14:49.891Z,28.50
2018-05-12T12:17:16.257Z,28.50
2018-05-12T12:19:42.573Z,28.70
2018-05-12T12:22:08.930Z,28.70
2018-05-12T12:24:35.265Z,28.20
2018-05-12T12:27:01.570Z,27.80
2018-05-12T12:29:28.874Z,28.00
2018-05-12T12:31:55.198Z,28.70
2018-05-12T12:34:22.314Z,29.70
2018-05-12T12:36:48.629Z,29.60
2018-05-12T12:39:14.973Z,29.40
2018-05-12T12:41:41.333Z,29.40
2018-05-12T12:44:08.385Z,30.00
2018-05-12T12:46:35.436Z,30.10
2018-05-12T12:49:03.661Z,29.90
2018-05-12T12:51:30.014Z,29.80
2018-05-12T12:53:56.325Z,29.60
2018-05-12T12:56:22.637Z,29.70
2018-05-12T12:58:48.942Z,30.30
2018-05-12T13:01:15.265Z,31.30
2018-05-12T13:03:43.350Z,33.40
2018-05-12T13:06:09.669Z,33.30
2018-05-12T13:08:37.332Z,34.30
2018-05-12T13:11:10.597Z,34.90
2018-05-12T13:13:36.949Z,35.40
2018-05-12T13:16:03.388Z,35.70
2018-05-12T13:18:29.659Z,35.80
2018-05-12T13:20:55.988Z,36.10
2018-05-12T13:23:22.459Z,36.40
2018-05-12T13:25:49.772Z,36.50
2018-05-12T13:28:16.120Z,37.20
2018-05-12T13:30:42.444Z,38.10
2018-05-12T13:33:09.509Z,39.20
2018-05-12T13:35:35.821Z,39.10
2018-05-12T13:38:02.140Z,39.20
2018-05-12T13:40:28.496Z,39.00
2018-05-12T13:42:54.861Z,39.20
2018-05-12T13:45:22.005Z,39.80
2018-05-12T13:47:49.070Z,40.40
2018-05-12T13:50:15.415Z,40.40
2018-05-12T13:52:41.742Z,40.40
2018-05-12T13:55:08.061Z,40.00
2018-05-12T13:57:34.385Z,39.20
2018-05-12T14:00:01.706Z,38.50
2018-05-12T14:02:28.029Z,38.20
2018-05-12T14:04:54.346Z,38.40
2018-05-12T14:07:20.712Z,38.50
2018-05-12T14:09:47.021Z,37.20
2018-05-12T14:12:13.336Z,35.90
2018-05-12T14:14:39.662Z,34.60
2018-05-12T14:17:05.981Z,33.20
2018-05-12T14:19:32.301Z,31.90
2018-05-12T14:21:58.609Z,31.00
2018-05-12T14:24:25.665Z,29.30
2018-05-12T14:26:51.991Z,29.20
2018-05-12T14:29:19.063Z,28.30
2018-05-12T14:31:45.389Z,28.20
2018-05-12T14:34:11.697Z,28.20
2018-05-12T14:36:38.775Z,29.60
2018-05-12T14:39:06.117Z,29.60
2018-05-12T14:41:32.448Z,29.90
2018-05-12T14:43:58.800Z,30.00
2018-05-12T14:46:25.143Z,29.80
2018-05-12T14:48:52.504Z,29.70
2018-05-12T14:51:18.820Z,29.70
2018-05-12T14:53:45.161Z,29.40
2018-05-12T14:56:11.509Z,29.50
2018-05-12T14:58:37.900Z,29.70
2018-05-12T15:01:04.241Z,30.40
2018-05-12T15:03:31.572Z,31.80
2018-05-12T15:05:58.905Z,33.30
2018-05-12T15:08:25.981Z,35.90
2018-05-12T15:10:52.328Z,35.90
2018-05-12T15:13:18.657Z,36.80
2018-05-12T15:15:46.012Z,37.30
2018-05-12T15:18:12.325Z,37.70
2018-05-12T15:20:38.648Z,37.90
2018-05-12T15:23:05.986Z,38.10
2018-05-12T15:25:33.057Z,38.90
2018-05-12T15:27:59.380Z,38.80
2018-05-12T15:30:25.713Z,38.80
2018-05-12T15:32:52.029Z,38.80
2018-05-12T15:35:19.096Z,38.90
2018-05-12T15:37:45.438Z,38.90
2018-05-12T15:40:14.561Z,38.80
2018-05-12T15:42:40.883Z,38.50
2018-05-12T15:45:07.236Z,38.40
2018-05-12T15:47:33.566Z,38.30
2018-05-12T15:50:00.729Z,37.70
2018-05-12T15:52:28.084Z,37.60
2018-05-12T15:54:56.131Z,37.80
2018-05-12T15:57:24.002Z,37.60
2018-05-12T15:59:50.301Z,37.60
2018-05-12T16:02:16.651Z,37.80
2018-05-12T16:04:42.967Z,37.50
2018-05-12T16:07:09.288Z,37.80
2018-05-12T16:09:36.597Z,38.00
2018-05-12T16:12:03.661Z,38.10
2018-05-12T16:14:30.710Z,38.20
2018-05-12T16:16:57.755Z,37.90
2018-05-12T16:19:25.854Z,37.80
2018-05-12T16:21:52.199Z,37.80
2018-05-12T16:24:18.513Z,37.30
2018-05-12T16:26:44.828Z,37.00
2018-05-12T16:29:11.149Z,36.90
2018-05-12T16:31:38.304Z,36.50
2018-05-12T16:34:04.545Z,36.50
2018-05-12T16:36:30.876Z,36.20
2018-05-12T16:38:57.196Z,35.30
2018-05-12T16:41:23.536Z,34.00
2018-05-12T16:43:49.875Z,33.30
2018-05-12T16:46:16.189Z,32.40
2018-05-12T16:48:42.496Z,31.50
2018-05-12T16:51:10.113Z,29.80
2018-05-12T16:53:36.413Z,29.70
2018-05-12T16:56:02.732Z,28.80
2018-05-12T16:58:29.797Z,27.80
2018-05-12T17:00:56.173Z,27.80
2018-05-12T17:03:22.587Z,27.40
2018-05-12T17:05:48.909Z,27.00
2018-05-12T17:08:15.245Z,26.70
2018-05-12T17:10:41.569Z,26.40
2018-05-12T17:13:07.974Z,26.30
2018-05-12T17:15:34.237Z,26.10
2018-05-12T17:18:01.554Z,26.00
2018-05-12T17:20:28.613Z,26.00
2018-05-12T17:22:54.932Z,26.00
2018-05-12T17:25:22.044Z,25.20
2018-05-12T17:27:50.442Z,24.80
2018-05-12T17:30:17.601Z,24.20
2018-05-12T17:32:44.673Z,23.70
2018-05-12T17:35:12.002Z,23.70
2018-05-12T17:37:39.073Z,23.40
2018-05-12T17:40:05.416Z,23.30
2018-05-12T17:42:31.752Z,23.40
2018-05-12T17:44:58.065Z,23.50
2018-05-12T17:47:24.376Z,23.50
2018-05-12T17:49:51.444Z,23.30
2018-05-12T17:52:17.753Z,23.30
2018-05-12T17:54:44.802Z,22.70
2018-05-12T17:57:11.879Z,22.50
2018-05-12T17:59:38.196Z,22.50
2018-05-12T18:02:04.524Z,22.40
2018-05-12T18:04:30.860Z,22.10
2018-05-12T18:06:57.177Z,21.90
2018-05-12T18:09:24.226Z,20.80
2018-05-12T18:11:50.637Z,20.70
2018-05-12T18:14:24.795Z,19.50
2018-05-12T18:16:51.139Z,19.40
2018-05-12T18:19:17.443Z,19.20
2018-05-12T18:21:43.777Z,18.90
2018-05-12T18:24:10.273Z,18.70
2018-05-12T18:26:36.588Z,18.50
2018-05-12T18:29:02.921Z,18.50
2018-05-12T18:31:29.248Z,18.50
2018-05-12T18:33:55.573Z,18.50
2018-05-12T18:36:23.016Z,18.50
2018-05-12T18:38:49.346Z,18.70
2018-05-12T18:41:15.660Z,18.60
2018-05-12T18:43:41.987Z,18.50
2018-05-12T18:46:08.292Z,18.30
2018-05-12T18:48:35.368Z,17.60
2018-05-12T18:51:01.713Z,17.50
2018-05-12T18:53:28.226Z,17.30
2018-05-12T18:55:54.379Z,17.10
2018-05-12T18:58:20.702Z,17.20
2018-05-12T19:00:47.035Z,17.30
2018-05-12T19:03:13.365Z,17.40
2018-05-12T19:05:39.681Z,17.40
2018-05-12T19:08:06.005Z,17.60
2018-05-12T19:10:32.333Z,17.60
2018-05-12T19:12:58.656Z,17.70
2018-05-12T19:15:25.068Z,17.90
2018-05-12T19:17:51.313Z,17.90
2018-05-12T19:20:17.657Z,18.00
2018-05-12T19:22:43.997Z,18.20
2018-05-12T19:25:10.313Z,18.30
2018-05-12T19:27:36.645Z,18.40
2018-05-12T19:30:03.005Z,18.10
2018-05-12T19:32:30.390Z,17.90
2018-05-12T19:34:56.734Z,17.60
2018-05-12T19:37:23.821Z,17.30
2018-05-12T19:39:50.158Z,17.20
2018-05-12T19:42:16.491Z,17.10
2018-05-12T19:44:42.826Z,16.90
2018-05-12T19:47:09.165Z,16.60
2018-05-12T19:49:35.546Z,16.40
2018-05-12T19:52:02.835Z,16.20
2018-05-12T19:54:29.152Z,16.10
2018-05-12T19:56:55.563Z,15.90
2018-05-12T19:59:21.879Z,15.70
2018-05-12T20:01:48.961Z,15.30
2018-05-12T20:04:15.277Z,15.30
2018-05-12T20:06:41.614Z,15.20
2018-05-12T20:09:07.936Z,15.20
2018-05-12T20:11:35.000Z,15.10
2018-05-12T20:14:02.341Z,15.10
2018-05-12T20:16:28.659Z,15.20
2018-05-12T20:18:55.734Z,15.20
2018-05-12T20:21:22.113Z,15.10
2018-05-12T20:23:48.444Z,15.10
2018-05-12T20:26:14.773Z,15.00
2018-05-12T20:28:41.109Z,15.00
2018-05-12T20:31:07.492Z,14.90
2018-05-12T20:33:34.526Z,15.10
2018-05-12T20:36:00.837Z,15.00
2018-05-12T20:38:27.926Z,15.10
2018-05-12T20:40:55.277Z,15.10
2018-05-12T20:43:21.612Z,15.10
2018-05-12T20:45:47.935Z,15.20
2018-05-12T20:48:14.275Z,15.20
2018-05-12T20:50:40.593Z,15.30
2018-05-12T20:53:06.925Z,15.30
2018-05-12T20:55:33.257Z,15.30
2018-05-12T20:57:59.589Z,15.30
2018-05-12T21:00:25.917Z,15.40
2018-05-12T21:02:52.229Z,15.20
2018-05-12T21:05:18.544Z,14.90
2018-05-12T21:07:45.609Z,14.70
2018-05-12T21:10:11.933Z,14.70
2018-05-12T21:12:38.981Z,14.70
2018-05-12T21:15:06.042Z,14.80
2018-05-12T21:17:32.368Z,14.80
2018-05-12T21:19:58.698Z,15.00
2018-05-12T21:22:25.041Z,15.10
2018-05-12T21:24:51.369Z,15.10
2018-05-12T21:27:17.705Z,15.20
2018-05-12T21:29:44.020Z,15.20
2018-05-12T21:32:10.345Z,15.30
2018-05-12T21:34:37.396Z,15.40
2018-05-12T21:37:03.721Z,15.40
2018-05-12T21:39:30.800Z,15.40
2018-05-12T21:41:58.156Z,15.40
2018-05-12T21:44:24.493Z,15.40
2018-05-12T21:46:50.834Z,15.40
2018-05-12T21:49:18.149Z,15.40
2018-05-12T21:51:44.469Z,15.50
2018-05-12T21:54:11.521Z,15.50
2018-05-12T21:56:37.849Z,15.50
2018-05-12T21:59:05.091Z,15.50
2018-05-12T22:01:31.309Z,15.50
2018-05-12T22:03:58.392Z,15.50
2018-05-12T22:06:24.717Z,15.50
2018-05-12T22:08:51.049Z,15.50
2018-05-12T22:11:17.372Z,15.50
2018-05-12T22:13:43.703Z,15.50
2018-05-12T22:16:10.028Z,15.50
2018-05-12T22:18:37.118Z,15.50
2018-05-12T22:21:03.449Z,15.40
2018-05-12T22:23:29.780Z,15.50
2018-05-12T22:25:57.111Z,15.50
2018-05-12T22:28:24.458Z,15.60
2018-05-12T22:30:50.871Z,15.50
2018-05-12T22:33:17.145Z,15.60
2018-05-12T22:35:43.467Z,15.50
2018-05-12T22:38:09.793Z,15.60
2018-05-12T22:40:36.127Z,15.60
2018-05-12T22:43:02.458Z,15.50
2018-05-12T22:45:28.784Z,15.60
2018-05-12T22:47:55.105Z,15.60
2018-05-12T22:50:21.434Z,15.50
2018-05-12T22:52:47.768Z,15.50
2018-05-12T22:55:15.117Z,15.60
2018-05-12T22:57:41.445Z,15.50
2018-05-12T23:00:07.788Z,15.50
2018-05-12T23:02:34.105Z,15.50
2018-05-12T23:05:00.465Z,15.50
2018-05-12T23:07:26.804Z,15.50
2018-05-12T23:09:54.185Z,15.50
2018-05-12T23:12:20.509Z,15.50
2018-05-12T23:14:46.833Z,15.50
2018-05-12T23:17:13.913Z,14.60
2018-05-12T23:19:40.981Z,14.30
2018-05-12T23:22:07.340Z,14.30
2018-05-12T23:24:33.657Z,14.30
2018-05-12T23:27:00.016Z,14.30
2018-05-12T23:29:26.338Z,14.00
2018-05-12T23:31:52.679Z,14.10
2018-05-12T23:34:19.041Z,14.00
2018-05-12T23:36:45.397Z,14.00
2018-05-12T23:39:12.481Z,14.00
2018-05-12T23:41:38.805Z,14.00
2018-05-12T23:44:05.146Z,14.00
2018-05-12T23:46:32.483Z,13.90
2018-05-12T23:48:58.797Z,14.00
2018-05-12T23:51:25.383Z,14.00
2018-05-12T23:53:51.588Z,13.80
2018-05-12T23:56:17.897Z,13.80
2018-05-12T23:58:44.213Z,13.80
